createdAt,value
2018-11-10T00:01:19.921Z,91.46
2018-11-10T00:03:48.136Z,92.00
2018-11-10T00:06:16.141Z,91.09
2018-11-10T00:08:44.145Z,91.40
2018-11-10T00:11:12.133Z,91.46
2018-11-10T00:13:40.142Z,90.77
2018-11-10T00:16:08.161Z,91.06
2018-11-10T00:18:36.154Z,91.18
2018-11-10T00:21:04.185Z,90.74
2018-11-10T00:23:32.169Z,90.37
2018-11-10T00:26:00.180Z,90.92
2018-11-10T00:28:28.201Z,90.08
2018-11-10T00:30:56.212Z,89.79
2018-11-10T00:33:24.244Z,90.37
2018-11-10T00:35:52.273Z,90.80
2018-11-10T00:38:20.273Z,90.93
2018-11-10T00:40:48.310Z,90.70
2018-11-10T00:43:16.318Z,89.84
2018-11-10T00:45:44.318Z,89.10
2018-11-10T00:48:12.380Z,88.79
2018-11-10T00:50:40.388Z,88.89
2018-11-10T00:53:08.376Z,89.43
2018-11-10T00:55:36.356Z,89.15
2018-11-10T00:58:04.627Z,89.98
2018-11-10T01:00:32.634Z,90.01
2018-11-10T01:03:00.661Z,91.27
2018-11-10T01:05:28.756Z,90.55
2018-11-10T01:07:56.795Z,91.37
2018-11-10T01:10:25.014Z,91.17
2018-11-10T01:12:53.036Z,90.75
2018-11-10T01:15:21.065Z,90.67
2018-11-10T01:17:49.068Z,90.79
2018-11-10T01:20:17.121Z,90.03
2018-11-10T01:22:45.120Z,90.36
2018-11-10T01:25:13.117Z,89.98
2018-11-10T01:27:41.165Z,90.24
2018-11-10T01:30:13.339Z,89.66
2018-11-10T01:32:41.685Z,88.85
2018-11-10T01:35:09.690Z,88.66
2018-11-10T01:37:38.069Z,89.28
2018-11-10T01:40:07.630Z,89.58
2018-11-10T01:42:35.805Z,88.44
2018-11-10T01:45:03.828Z,87.89
2018-11-10T01:47:31.809Z,88.71
2018-11-10T01:49:59.788Z,87.65
2018-11-10T01:52:27.777Z,88.61
2018-11-10T01:54:55.786Z,87.62
2018-11-10T01:57:23.797Z,87.90
2018-11-10T01:59:51.822Z,88.79
2018-11-10T02:02:19.877Z,88.61
2018-11-10T02:04:47.865Z,88.79
2018-11-10T02:07:15.963Z,89.21
2018-11-10T02:09:44.048Z,88.57
2018-11-10T02:12:12.099Z,89.55
2018-11-10T02:14:40.257Z,88.85
2018-11-10T02:17:08.298Z,88.65
2018-11-10T02:19:36.309Z,88.85
2018-11-10T02:22:04.320Z,89.31
2018-11-10T02:24:32.340Z,88.87
2018-11-10T02:27:00.324Z,88.60
2018-11-10T02:29:28.321Z,89.29
2018-11-10T02:31:56.338Z,88.84
2018-11-10T02:34:24.353Z,89.06
2018-11-10T02:36:52.372Z,89.36
2018-11-10T02:39:20.388Z,89.71
2018-11-10T02:41:48.417Z,89.03
2018-11-10T02:44:16.525Z,89.36
2018-11-10T02:46:44.615Z,88.42
2018-11-10T02:49:12.612Z,88.67
2018-11-10T02:51:40.764Z,88.63
2018-11-10T02:54:08.777Z,88.20
2018-11-10T02:56:36.773Z,88.21
2018-11-10T02:59:04.809Z,87.07
2018-11-10T03:01:32.829Z,86.87
2018-11-10T03:04:00.830Z,87.63
2018-11-10T03:06:28.825Z,87.27
2018-11-10T03:08:56.820Z,86.08
2018-11-10T03:11:24.873Z,86.65
2018-11-10T03:13:52.992Z,86.87
2018-11-10T03:16:21.206Z,86.60
2018-11-10T03:18:49.119Z,86.56
2018-11-10T03:21:17.175Z,86.45
2018-11-10T03:23:45.189Z,86.91
2018-11-10T03:26:13.213Z,86.26
2018-11-10T03:28:41.204Z,86.32
2018-11-10T03:31:09.221Z,86.21
2018-11-10T03:33:37.293Z,86.28
2018-11-10T03:36:05.393Z,85.89
2018-11-10T03:38:33.409Z,86.92
2018-11-10T03:41:01.520Z,87.35
2018-11-10T03:43:29.501Z,86.92
2018-11-10T03:45:57.557Z,86.98
2018-11-10T03:48:25.697Z,87.89
2018-11-10T03:50:53.764Z,87.30
2018-11-10T03:53:22.397Z,87.24
2018-11-10T03:55:50.480Z,87.40
2018-11-10T03:58:18.785Z,87.80
2018-11-10T04:00:46.788Z,87.63
2018-11-10T04:03:14.744Z,87.42
2018-11-10T04:05:42.791Z,87.16
2018-11-10T04:08:10.782Z,88.09
2018-11-10T04:10:38.760Z,87.40
2018-11-10T04:13:06.749Z,87.09
2018-11-10T04:15:34.733Z,87.20
2018-11-10T04:18:02.784Z,86.96
2018-11-10T04:20:30.798Z,87.12
2018-11-10T04:22:58.825Z,87.08
2018-11-10T04:25:26.907Z,86.58
2018-11-10T04:27:54.939Z,86.98
2018-11-10T04:30:22.924Z,87.04
2018-11-10T04:32:50.968Z,86.76
2018-11-10T04:35:18.958Z,85.68
2018-11-10T04:37:47.025Z,86.45
2018-11-10T04:40:15.001Z,86.23
2018-11-10T04:42:42.993Z,85.43
2018-11-10T04:45:12.041Z,85.41
2018-11-10T04:47:40.092Z,85.04
2018-11-10T04:50:09.720Z,84.94
2018-11-10T04:52:37.699Z,85.70
2018-11-10T04:55:06.117Z,85.15
2018-11-10T04:57:34.132Z,85.25
2018-11-10T05:00:02.113Z,84.87
2018-11-10T05:02:30.103Z,85.28
2018-11-10T05:04:58.124Z,84.86
2018-11-10T05:07:26.136Z,85.86
2018-11-10T05:09:54.197Z,85.23
2018-11-10T05:12:22.200Z,85.99
2018-11-10T05:14:50.255Z,85.86
2018-11-10T05:17:18.265Z,85.85
2018-11-10T05:19:46.338Z,85.74
2018-11-10T05:22:14.369Z,86.74
2018-11-10T05:24:42.348Z,86.85
2018-11-10T05:27:10.377Z,85.54
2018-11-10T05:29:38.437Z,85.69
2018-11-10T05:32:06.502Z,85.25
2018-11-10T05:34:34.490Z,85.40
2018-11-10T05:37:02.503Z,84.58
2018-11-10T05:39:30.513Z,84.04
2018-11-10T05:41:58.609Z,85.08
2018-11-10T05:44:26.596Z,84.08
2018-11-10T05:46:54.659Z,85.02
2018-11-10T05:49:22.656Z,84.55
2018-11-10T05:51:50.653Z,85.12
2018-11-10T05:54:18.697Z,84.70
2018-11-10T05:56:46.711Z,84.87
2018-11-10T05:59:14.897Z,84.38
2018-11-10T06:01:42.985Z,84.95
2018-11-10T06:04:10.984Z,84.39
2018-11-10T06:06:38.974Z,84.31
2018-11-10T06:09:08.296Z,84.06
2018-11-10T06:11:36.289Z,84.07
2018-11-10T06:14:04.290Z,84.21
2018-11-10T06:16:32.256Z,83.28
2018-11-10T06:19:00.497Z,83.10
2018-11-10T06:21:31.400Z,83.87
2018-11-10T06:23:59.414Z,83.51
2018-11-10T06:26:27.913Z,83.63
2018-11-10T06:28:55.938Z,83.35
2018-11-10T06:31:23.937Z,83.33
2018-11-10T06:33:51.969Z,82.87
2018-11-10T06:36:20.003Z,81.98
2018-11-10T06:38:48.060Z,82.01
2018-11-10T06:41:16.108Z,81.48
2018-11-10T06:43:44.101Z,81.73
2018-11-10T06:46:12.148Z,81.71
2018-11-10T06:48:40.529Z,81.69
2018-11-10T06:51:08.628Z,81.34
2018-11-10T06:53:36.624Z,82.27
2018-11-10T06:56:04.662Z,82.18
2018-11-10T06:58:32.660Z,81.85
2018-11-10T07:01:00.694Z,82.00
2018-11-10T07:03:28.776Z,81.46
2018-11-10T07:05:56.709Z,81.11
2018-11-10T07:08:24.753Z,81.19
2018-11-10T07:10:52.740Z,81.79
2018-11-10T07:13:20.837Z,81.25
2018-11-10T07:15:48.834Z,80.48
2018-11-10T07:18:16.974Z,80.24
2018-11-10T07:20:44.890Z,80.96
2018-11-10T07:23:12.963Z,81.07
2018-11-10T07:25:40.982Z,79.90
2018-11-10T07:28:08.969Z,79.62
2018-11-10T07:30:36.986Z,80.19
2018-11-10T07:33:05.410Z,79.79
2018-11-10T07:35:33.419Z,79.16
2018-11-10T07:38:01.436Z,79.48
2018-11-10T07:40:29.489Z,79.66
2018-11-10T07:42:57.518Z,79.27
2018-11-10T07:45:25.502Z,79.27
2018-11-10T07:47:53.497Z,79.53
2018-11-10T07:50:21.625Z,79.45
2018-11-10T07:52:49.701Z,78.82
2018-11-10T07:55:18.561Z,78.76
2018-11-10T07:57:46.705Z,78.90
2018-11-10T08:00:17.903Z,78.81
2018-11-10T08:02:45.904Z,79.26
2018-11-10T08:05:14.625Z,79.37
2018-11-10T08:07:43.433Z,78.61
2018-11-10T08:10:12.014Z,79.36
2018-11-10T08:12:40.062Z,78.42
2018-11-10T08:15:10.069Z,78.86
2018-11-10T08:17:38.174Z,77.78
2018-11-10T08:20:06.208Z,78.00
2018-11-10T08:22:34.229Z,78.43
2018-11-10T08:25:02.262Z,77.80
2018-11-10T08:27:30.275Z,78.55
2018-11-10T08:29:58.311Z,77.44
2018-11-10T08:32:26.530Z,77.53
2018-11-10T08:34:54.609Z,77.72
2018-11-10T08:37:22.629Z,76.62
2018-11-10T08:39:50.677Z,77.39
2018-11-10T08:42:18.689Z,77.86
2018-11-10T08:44:46.717Z,77.02
2018-11-10T08:47:14.725Z,77.27
2018-11-10T08:49:42.768Z,77.62
2018-11-10T08:52:10.773Z,77.92
2018-11-10T08:57:09.271Z,77.43
2018-11-10T08:59:37.303Z,77.02
2018-11-10T09:02:05.459Z,77.46
2018-11-10T09:04:33.506Z,77.56
2018-11-10T09:07:01.487Z,77.09
2018-11-10T09:09:30.601Z,77.03
2018-11-10T09:11:58.580Z,77.73
2018-11-10T09:14:26.641Z,77.03
2018-11-10T09:16:54.641Z,76.95
2018-11-10T09:19:22.653Z,78.39
2018-11-10T09:21:50.734Z,78.23
2018-11-10T09:24:18.674Z,78.77
2018-11-10T09:26:46.708Z,78.46
2018-11-10T09:29:14.749Z,78.95
2018-11-10T09:31:42.872Z,77.89
2018-11-10T09:34:10.856Z,79.50
2018-11-10T09:36:38.954Z,78.64
2018-11-10T09:39:07.377Z,79.95
2018-11-10T09:41:35.690Z,79.09
2018-11-10T09:44:03.742Z,79.29
2018-11-10T09:46:31.778Z,79.16
2018-11-10T09:48:59.759Z,80.68
2018-11-10T09:51:27.780Z,80.77
2018-11-10T09:53:55.831Z,80.66
2018-11-10T09:56:23.875Z,79.59
2018-11-10T09:58:51.909Z,79.03
2018-11-10T10:01:20.049Z,79.23
2018-11-10T10:03:48.012Z,79.16
2018-11-10T10:06:16.025Z,77.71
2018-11-10T10:08:44.112Z,77.79
2018-11-10T10:11:12.052Z,78.07
2018-11-10T10:13:40.206Z,77.56
2018-11-10T10:16:08.742Z,77.08
2018-11-10T10:18:36.721Z,76.22
2018-11-10T10:21:04.787Z,76.23
2018-11-10T10:23:32.789Z,76.55
2018-11-10T10:26:00.821Z,77.15
2018-11-10T10:28:28.912Z,76.29
2018-11-10T10:30:56.885Z,76.35
2018-11-10T10:33:24.966Z,76.19
2018-11-10T10:35:53.022Z,75.11
2018-11-10T10:38:21.097Z,75.22
2018-11-10T10:40:49.154Z,75.80
2018-11-10T10:43:17.151Z,75.07
2018-11-10T10:45:45.136Z,76.47
2018-11-10T10:48:13.167Z,75.76
2018-11-10T10:50:41.164Z,76.90
2018-11-10T10:53:09.163Z,77.16
2018-11-10T10:55:37.341Z,76.23
2018-11-10T10:58:06.258Z,75.88
2018-11-10T11:00:39.569Z,75.52
2018-11-10T11:03:13.027Z,76.05
2018-11-10T11:05:41.019Z,77.11
2018-11-10T11:08:09.030Z,76.58
2018-11-10T11:10:37.058Z,77.04
2018-11-10T11:13:05.185Z,77.09
2018-11-10T11:15:33.350Z,76.59
2018-11-10T11:18:01.274Z,77.42
2018-11-10T11:20:29.320Z,77.60
2018-11-10T11:22:57.324Z,78.63
2018-11-10T11:25:25.312Z,78.40
2018-11-10T11:27:53.317Z,78.74
2018-11-10T11:30:21.349Z,79.09
2018-11-10T11:32:49.456Z,77.47
2018-11-10T11:35:17.484Z,79.18
2018-11-10T11:37:45.461Z,79.18
2018-11-10T11:40:14.395Z,78.64
2018-11-10T11:42:42.651Z,78.54
2018-11-10T11:45:11.766Z,78.46
2018-11-10T11:47:40.306Z,78.04
2018-11-10T11:50:09.670Z,77.36
2018-11-10T11:52:38.115Z,77.38
2018-11-10T11:55:06.578Z,77.11
2018-11-10T11:57:35.495Z,76.87
2018-11-10T12:00:05.078Z,76.38
2018-11-10T12:02:33.106Z,76.47
2018-11-10T12:05:01.105Z,76.94
2018-11-10T12:07:29.121Z,76.02
2018-11-10T12:09:57.161Z,76.02
2018-11-10T12:12:25.160Z,77.80
2018-11-10T12:14:53.183Z,77.54
2018-11-10T12:17:21.201Z,78.42
2018-11-10T12:19:49.174Z,77.65
2018-11-10T12:22:17.179Z,77.75
2018-11-10T12:24:45.249Z,77.85
2018-11-10T12:27:13.257Z,78.71
2018-11-10T12:29:41.255Z,78.93
2018-11-10T12:32:09.317Z,79.07
2018-11-10T12:34:37.333Z,79.09
2018-11-10T12:37:05.572Z,80.81
2018-11-10T12:39:33.587Z,80.88
2018-11-10T12:42:01.602Z,82.26
2018-11-10T12:44:29.585Z,82.59
2018-11-10T12:46:57.593Z,81.98
2018-11-10T12:49:25.593Z,82.84
2018-11-10T12:51:53.624Z,83.19
2018-11-10T12:54:21.621Z,83.44
2018-11-10T12:56:49.660Z,82.80
2018-11-10T12:59:17.679Z,84.11
2018-11-10T13:01:45.725Z,83.49
2018-11-10T13:04:14.006Z,85.02
2018-11-10T13:06:42.007Z,83.23
2018-11-10T13:09:11.073Z,84.27
2018-11-10T13:11:39.366Z,84.26
2018-11-10T13:14:08.751Z,84.33
2018-11-10T13:16:36.820Z,84.11
2018-11-10T13:19:05.160Z,85.41
2018-11-10T13:21:33.188Z,85.23
2018-11-10T13:24:01.202Z,85.28
2018-11-10T13:26:29.252Z,85.95
2018-11-10T13:28:57.261Z,86.04
2018-11-10T13:31:25.471Z,86.41
2018-11-10T13:33:53.324Z,86.07
2018-11-10T13:36:21.412Z,85.89
2018-11-10T13:38:49.562Z,86.98
2018-11-10T13:41:17.498Z,86.22
2018-11-10T13:43:45.603Z,87.39
2018-11-10T13:46:13.654Z,86.59
2018-11-10T13:48:41.644Z,86.83
2018-11-10T13:51:09.861Z,86.21
2018-11-10T13:53:37.729Z,85.99
2018-11-10T13:56:05.920Z,86.44
2018-11-10T13:58:34.008Z,86.17
2018-11-10T14:01:02.081Z,87.52
2018-11-10T14:03:30.766Z,87.41
2018-11-10T14:05:58.766Z,87.51
2018-11-10T14:08:26.783Z,87.01
2018-11-10T14:10:54.817Z,87.47
2018-11-10T14:13:22.818Z,87.06
2018-11-10T14:15:50.814Z,87.99
2018-11-10T14:18:18.846Z,87.24
2018-11-10T14:20:47.009Z,87.41
2018-11-10T14:23:14.917Z,86.80
2018-11-10T14:25:42.929Z,87.73
2018-11-10T14:28:10.998Z,86.61
2018-11-10T14:30:39.245Z,87.10
2018-11-10T14:33:07.258Z,88.29
2018-11-10T14:35:35.259Z,88.37
2018-11-10T14:38:03.260Z,88.40
2018-11-10T14:40:31.249Z,88.67
2018-11-10T14:42:59.290Z,88.58
2018-11-10T14:45:27.290Z,89.51
2018-11-10T14:47:55.432Z,88.66
2018-11-10T14:50:23.432Z,88.83
2018-11-10T14:52:51.596Z,88.37
2018-11-10T14:55:19.450Z,88.61
2018-11-10T14:57:47.452Z,88.63
2018-11-10T15:00:17.313Z,89.04
2018-11-10T15:02:45.341Z,88.60
2018-11-10T15:05:13.741Z,89.17
2018-11-10T15:07:42.736Z,89.37
2018-11-10T15:10:12.465Z,89.46
2018-11-10T15:12:40.932Z,89.40
2018-11-10T15:15:10.400Z,88.93
2018-11-10T15:17:38.826Z,88.70
2018-11-10T15:20:07.465Z,89.24
2018-11-10T15:22:35.674Z,89.42
2018-11-10T15:25:03.657Z,88.56
2018-11-10T15:27:31.869Z,88.70
2018-11-10T15:29:59.901Z,89.65
2018-11-10T15:32:27.953Z,89.76
2018-11-10T15:34:55.988Z,88.81
2018-11-10T15:37:24.026Z,89.73
2018-11-10T15:39:58.872Z,89.31
2018-11-10T15:42:26.904Z,89.87
2018-11-10T15:44:54.959Z,89.06
2018-11-10T15:47:23.090Z,89.59
2018-11-10T15:49:51.099Z,89.25
2018-11-10T15:52:19.101Z,89.48
2018-11-10T15:54:47.253Z,89.57
2018-11-10T15:57:15.345Z,89.89
2018-11-10T15:59:43.361Z,88.79
2018-11-10T16:02:11.408Z,89.54
2018-11-10T16:04:39.391Z,88.95
2018-11-10T16:07:07.378Z,87.73
2018-11-10T16:09:35.392Z,87.59
2018-11-10T16:12:03.505Z,88.73
2018-11-10T16:14:31.553Z,88.84
2018-11-10T16:16:59.610Z,88.80
2018-11-10T16:19:27.596Z,89.01
2018-11-10T16:21:55.673Z,88.90
2018-11-10T16:24:23.702Z,89.28
2018-11-10T16:26:51.766Z,89.50
2018-11-10T16:29:19.820Z,88.60
2018-11-10T16:31:47.801Z,89.65
2018-11-10T16:34:15.824Z,88.82
2018-11-10T16:36:43.906Z,89.12
2018-11-10T16:39:11.928Z,90.36
2018-11-10T16:41:40.069Z,89.79
2018-11-10T16:44:08.241Z,90.76
2018-11-10T16:46:36.253Z,89.80
2018-11-10T16:49:04.513Z,89.27
2018-11-10T16:51:32.537Z,89.63
2018-11-10T16:54:00.513Z,89.54
2018-11-10T16:56:28.631Z,89.75
2018-11-10T16:58:56.720Z,89.69
2018-11-10T17:01:24.658Z,90.28
2018-11-10T17:03:52.652Z,90.38
2018-11-10T17:06:20.687Z,89.75
2018-11-10T17:08:48.719Z,90.56
2018-11-10T17:11:16.708Z,90.86
2018-11-10T17:13:44.918Z,90.63
2018-11-10T17:16:12.941Z,90.78
2018-11-10T17:18:41.038Z,90.13
2018-11-10T17:21:09.017Z,91.38
2018-11-10T17:23:37.149Z,91.17
2018-11-10T17:26:05.175Z,91.38
2018-11-10T17:28:33.204Z,90.68
2018-11-10T17:31:01.213Z,90.73
2018-11-10T17:33:29.223Z,90.84
2018-11-10T17:35:57.287Z,90.92
2018-11-10T17:38:25.264Z,90.43
2018-11-10T17:40:53.264Z,91.52
2018-11-10T17:43:21.268Z,91.55
2018-11-10T17:45:49.236Z,90.65
2018-11-10T17:48:17.332Z,91.46
2018-11-10T17:50:45.285Z,91.84
2018-11-10T17:53:13.353Z,91.05
2018-11-10T17:55:41.332Z,90.94
2018-11-10T17:58:09.320Z,91.43
2018-11-10T18:00:37.298Z,91.74
2018-11-10T18:03:05.641Z,91.75
2018-11-10T18:05:33.677Z,91.26
2018-11-10T18:08:01.743Z,91.33
2018-11-10T18:10:29.741Z,91.68
2018-11-10T18:12:57.845Z,91.57
2018-11-10T18:15:25.765Z,91.14
2018-11-10T18:17:53.793Z,91.15
2018-11-10T18:20:21.825Z,91.03
2018-11-10T18:22:49.836Z,91.51
2018-11-10T18:25:17.998Z,91.67
2018-11-10T18:27:45.993Z,91.88
2018-11-10T18:30:14.809Z,91.65
2018-11-10T18:32:43.319Z,91.89
2018-11-10T18:35:11.933Z,92.77
2018-11-10T18:37:40.224Z,92.62
2018-11-10T18:40:08.385Z,92.02
2018-11-10T18:42:36.297Z,92.62
2018-11-10T18:45:04.317Z,91.91
2018-11-10T18:47:32.473Z,91.66
2018-11-10T18:50:00.529Z,92.24
2018-11-10T18:52:28.699Z,92.05
2018-11-10T18:54:56.585Z,91.92
2018-11-10T18:57:24.792Z,91.83
2018-11-10T18:59:52.829Z,92.85
2018-11-10T19:02:20.897Z,92.91
2018-11-10T19:04:48.987Z,92.83
2018-11-10T19:07:17.000Z,91.85
2018-11-10T19:09:45.044Z,91.80
2018-11-10T19:12:13.031Z,92.50
2018-11-10T19:14:41.023Z,92.33
2018-11-10T19:17:09.016Z,92.10
2018-11-10T19:19:37.047Z,92.40
2018-11-10T19:22:05.364Z,92.05
2018-11-10T19:24:33.457Z,91.73
2018-11-10T19:27:01.483Z,92.71
2018-11-10T19:29:29.490Z,91.81
2018-11-10T19:31:57.573Z,91.55
2018-11-10T19:34:25.753Z,91.48
2018-11-10T19:36:53.776Z,91.43
2018-11-10T19:39:21.844Z,90.79
2018-11-10T19:41:49.905Z,90.83
2018-11-10T19:44:18.007Z,91.33
2018-11-10T19:46:45.972Z,91.09
2018-11-10T19:49:14.057Z,90.05
2018-11-10T19:51:42.403Z,89.81
2018-11-10T19:54:11.085Z,90.52
2018-11-10T19:56:39.117Z,89.80
2018-11-10T19:59:07.100Z,90.48
2018-11-10T20:01:35.177Z,90.11
2018-11-10T20:04:03.221Z,90.30
2018-11-10T20:06:31.305Z,89.86
2018-11-10T20:08:59.310Z,89.12
2018-11-10T20:11:27.289Z,90.39
2018-11-10T20:13:55.421Z,89.03
2018-11-10T20:16:23.334Z,89.74
2018-11-10T20:18:51.353Z,89.58
2018-11-10T20:21:19.341Z,90.54
2018-11-10T20:23:47.475Z,91.08
2018-11-10T20:26:15.548Z,91.24
2018-11-10T20:28:43.585Z,90.10
2018-11-10T20:31:11.586Z,90.21
2018-11-10T20:33:39.792Z,90.33
2018-11-10T20:36:07.934Z,90.30
2018-11-10T20:38:36.009Z,90.05
2018-11-10T20:41:04.022Z,89.61
2018-11-10T20:43:32.012Z,89.72
2018-11-10T20:46:00.063Z,90.04
2018-11-10T20:48:28.047Z,90.44
2018-11-10T20:50:56.191Z,90.70
2018-11-10T20:55:57.640Z,90.46
2018-11-10T20:58:25.653Z,89.98
2018-11-10T21:00:53.713Z,90.26
2018-11-10T21:03:21.740Z,89.36
2018-11-10T21:05:49.820Z,88.98
2018-11-10T21:08:17.777Z,89.00
2018-11-10T21:10:45.857Z,88.89
2018-11-10T21:13:13.929Z,89.36
2018-11-10T21:15:41.928Z,89.65
2018-11-10T21:18:09.969Z,90.05
2018-11-10T21:20:38.037Z,89.46
2018-11-10T21:23:06.065Z,89.70
2018-11-10T21:25:34.111Z,90.06
2018-11-10T21:28:02.117Z,89.93
2018-11-10T21:30:30.227Z,89.27
2018-11-10T21:32:58.274Z,88.97
2018-11-10T21:35:26.449Z,89.35
2018-11-10T21:37:54.371Z,89.41
2018-11-10T21:40:22.456Z,89.19
2018-11-10T21:42:50.493Z,89.00
2018-11-10T21:45:18.772Z,89.54
2018-11-10T21:47:46.980Z,89.93
2018-11-10T21:50:18.441Z,89.40
2018-11-10T21:52:46.662Z,89.59
2018-11-10T21:55:16.897Z,88.74
2018-11-10T21:57:45.515Z,89.59
2018-11-10T22:00:15.457Z,88.78
2018-11-10T22:02:44.144Z,89.57
2018-11-10T22:05:12.275Z,89.67
2018-11-10T22:07:40.378Z,88.90
2018-11-10T22:10:10.169Z,89.12
2018-11-10T22:12:38.196Z,89.27
2018-11-10T22:15:08.468Z,88.71
2018-11-10T22:17:36.466Z,88.63
2018-11-10T22:20:05.261Z,88.48
2018-11-10T22:22:33.267Z,88.55
2018-11-10T22:25:01.257Z,89.40
2018-11-10T22:27:29.320Z,89.62
2018-11-10T22:29:57.307Z,89.81
2018-11-10T22:32:25.352Z,89.53
2018-11-10T22:34:53.542Z,88.57
2018-11-10T22:37:21.574Z,88.93
2018-11-10T22:39:49.611Z,87.77
2018-11-10T22:42:17.707Z,88.16
2018-11-10T22:44:45.713Z,88.36
2018-11-10T22:47:13.773Z,87.90
2018-11-10T22:49:41.764Z,87.87
2018-11-10T22:52:09.768Z,87.10
2018-11-10T22:54:37.764Z,87.55
2018-11-10T22:57:06.067Z,87.75
2018-11-10T22:59:33.978Z,87.34
2018-11-10T23:02:01.973Z,88.16
2018-11-10T23:04:29.985Z,87.49
2018-11-10T23:06:57.977Z,88.20
2018-11-10T23:09:26.014Z,88.49
2018-11-10T23:11:54.011Z,88.30
2018-11-10T23:14:22.045Z,87.40
2018-11-10T23:16:50.027Z,87.36
2018-11-10T23:19:18.054Z,87.60
2018-11-10T23:21:46.079Z,88.19
2018-11-10T23:24:14.137Z,87.32
2018-11-10T23:26:42.129Z,87.11
2018-11-10T23:29:10.132Z,87.93
2018-11-10T23:31:38.127Z,87.62
2018-11-10T23:34:06.242Z,88.38
2018-11-10T23:36:34.241Z,88.82
2018-11-10T23:39:02.238Z,88.76
2018-11-10T23:41:30.238Z,89.32
2018-11-10T23:43:58.282Z,89.78
2018-11-10T23:46:26.406Z,89.94
2018-11-10T23:48:54.423Z,88.92
2018-11-10T23:51:22.466Z,89.66
2018-11-10T23:53:50.521Z,90.30
2018-11-10T23:56:18.531Z,89.83
2018-11-10T23:58:46.517Z,90.72
